Time;durP1;ratioP1;P1;durP2;ratioP2;P2;SDS_P1;SDS_P2;PMS_P1;PMS_P2;Temp;Humidity;BMP_temperature;BMP_pressure;BME280_temperature;BME280_humidity;BME280_pressure;Samples;Min_cycle;Max_cycle;Signal;HPM_P1;HPM_P2
2022/12/04 00:01:35;;;;;;;11.15;7.37;;;25.20;93.10;;;;;;1853753;77;21282;-83
2022/12/04 00:04:05;;;;;;;13.18;8.20;;;25.20;93.20;;;;;;1850711;76;21151;-83
2022/12/04 00:06:36;;;;;;;14.23;9.45;;;25.30;93.20;;;;;;1841932;77;21088;-82
2022/12/04 00:09:07;;;;;;;12.90;8.98;;;25.30;93.20;;;;;;1839876;76;21119;-82
2022/12/04 00:11:41;;;;;;;12.43;9.08;;;25.30;93.20;;;;;;1866453;76;21112;-83
2022/12/04 00:14:13;;;;;;;11.68;8.30;;;25.30;93.10;;;;;;1869143;76;21144;-83
2022/12/04 00:16:44;;;;;;;11.95;8.75;;;25.30;93.10;;;;;;1864996;76;21117;-83
2022/12/04 00:19:17;;;;;;;16.17;8.98;;;25.40;93.10;;;;;;1860589;77;21116;-83
2022/12/04 00:21:49;;;;;;;14.23;8.13;;;25.40;93.10;;;;;;1853611;76;21089;-83
2022/12/04 00:24:20;;;;;;;17.90;8.68;;;25.50;93.10;;;;;;1851417;76;21128;-82
2022/12/04 00:26:51;;;;;;;13.88;8.30;;;25.50;93.00;;;;;;1869214;76;21608;-83
2022/12/04 00:29:22;;;;;;;13.85;8.53;;;25.50;93.10;;;;;;1846930;77;21152;-82
2022/12/04 00:31:53;;;;;;;12.60;8.48;;;25.50;93.00;;;;;;1848414;75;21116;-82
2022/12/04 00:34:24;;;;;;;10.18;8.43;;;25.50;93.00;;;;;;1865761;76;21159;-81
2022/12/04 00:36:55;;;;;;;15.00;8.58;;;25.50;93.10;;;;;;1853412;76;21174;-82
2022/12/04 00:39:26;;;;;;;12.70;8.70;;;25.50;93.00;;;;;;1867605;76;21131;-81
2022/12/04 00:42:00;;;;;;;16.97;9.45;;;25.40;93.20;;;;;;1864334;76;21095;-82
2022/12/04 00:44:31;;;;;;;16.40;10.60;;;25.40;93.30;;;;;;1858061;75;21119;-83
2022/12/04 00:47:02;;;;;;;19.27;12.53;;;25.50;93.30;;;;;;1852128;75;21134;-83
2022/12/04 00:49:33;;;;;;;10.10;7.05;;;25.50;93.20;;;;;;1868582;76;21064;-83
2022/12/04 00:52:04;;;;;;;10.90;6.25;;;25.50;92.90;;;;;;1872688;76;21741;-83
2022/12/04 00:54:34;;;;;;;10.40;7.35;;;25.60;92.50;;;;;;1869586;76;21210;-69
2022/12/04 00:57:05;;;;;;;9.33;6.33;;;25.60;92.60;;;;;;1852620;75;21126;-68
2022/12/04 00:59:38;;;;;;;11.28;6.80;;;25.70;92.40;;;;;;1871889;76;21239;-68
2022/12/04 01:02:08;;;;;;;12.00;7.85;;;25.80;92.40;;;;;;1854247;76;21131;-69
2022/12/04 01:04:39;;;;;;;16.57;12.03;;;25.80;92.20;;;;;;1860561;75;21597;-68
2022/12/04 01:07:10;;;;;;;13.58;9.03;;;25.90;92.10;;;;;;1863025;75;21691;-68
2022/12/04 01:09:41;;;;;;;12.73;9.33;;;26.00;91.90;;;;;;1859151;76;21591;-69
2022/12/04 01:12:11;;;;;;;14.00;10.28;;;25.90;91.90;;;;;;1866315;76;21259;-68
2022/12/04 01:14:45;;;;;;;16.27;9.70;;;26.00;91.70;;;;;;1855169;76;21213;-67
2022/12/04 01:17:16;;;;;;;11.68;7.10;;;26.10;91.70;;;;;;1851718;75;21122;-68
2022/12/04 01:19:50;;;;;;;9.55;6.60;;;26.10;91.50;;;;;;1869154;76;21665;-68
2022/12/04 01:22:22;;;;;;;7.67;4.78;;;26.10;91.50;;;;;;1860928;75;21130;-69
2022/12/04 01:24:57;;;;;;;7.53;5.47;;;26.10;91.50;;;;;;1863830;76;21076;-67
2022/12/04 01:27:28;;;;;;;11.28;6.45;;;26.20;91.50;;;;;;1870832;75;21622;-68
2022/12/04 01:29:59;;;;;;;8.35;5.47;;;26.20;91.40;;;;;;1857834;76;21109;-69
2022/12/04 01:32:30;;;;;;;11.33;5.87;;;26.20;91.40;;;;;;1851109;76;21088;-69
2022/12/04 01:35:01;;;;;;;9.63;7.22;;;26.20;91.40;;;;;;1861761;76;21652;-68
2022/12/04 01:37:33;;;;;;;7.80;5.47;;;26.30;91.50;;;;;;1861378;75;21556;-69
2022/12/04 01:40:05;;;;;;;10.78;6.55;;;26.30;91.40;;;;;;1861161;76;21160;-69
2022/12/04 01:42:36;;;;;;;8.45;5.87;;;26.40;91.40;;;;;;1855400;77;21065;-68
2022/12/04 01:45:36;;;;;;;7.85;5.12;;;26.40;91.40;;;;;;1845043;76;21096;-69
2022/12/04 01:48:13;;;;;;;8.65;5.33;;;26.30;91.30;;;;;;1854536;76;21677;-69
2022/12/04 01:50:44;;;;;;;10.32;5.53;;;26.40;91.40;;;;;;1866348;76;21621;-71
2022/12/04 01:53:16;;;;;;;7.35;4.83;;;26.40;91.50;;;;;;1854672;77;21092;-69
2022/12/04 01:55:48;;;;;;;7.70;5.08;;;26.50;91.50;;;;;;1845649;76;21134;-70
2022/12/04 01:58:22;;;;;;;6.08;4.40;;;26.50;91.50;;;;;;1852618;77;21680;-69
2022/12/04 02:00:55;;;;;;;9.53;3.65;;;26.50;91.30;;;;;;1864374;76;21554;-68
2022/12/04 02:03:28;;;;;;;6.30;4.47;;;26.60;91.10;;;;;;1858085;77;21118;-69
2022/12/04 02:05:59;;;;;;;6.70;3.70;;;26.60;91.10;;;;;;1849086;76;21620;-68
2022/12/04 02:08:30;;;;;;;7.00;4.37;;;26.60;91.10;;;;;;1852424;75;21139;-69
2022/12/04 02:11:09;;;;;;;4.53;3.00;;;26.70;91.00;;;;;;1851468;76;21186;-69
2022/12/04 02:13:48;;;;;;;6.97;4.47;;;26.70;90.80;;;;;;1862197;75;21104;-70
2022/12/04 02:16:21;;;;;;;4.65;3.20;;;26.70;90.80;;;;;;1847253;76;21148;-69
2022/12/04 02:19:06;;;;;;;4.40;3.33;;;26.70;90.80;;;;;;1863638;76;21161;-68
2022/12/04 02:21:43;;;;;;;4.50;2.98;;;26.80;90.70;;;;;;1858549;76;21069;-68
2022/12/04 02:24:41;;;;;;;5.50;2.98;;;26.80;90.70;;;;;;1862527;76;21150;-69
2022/12/04 02:27:13;;;;;;;8.25;3.70;;;26.90;90.50;;;;;;1860072;76;21588;-69
2022/12/04 02:30:04;;;;;;;6.47;3.62;;;26.90;90.50;;;;;;1856067;76;21140;-69
2022/12/04 02:32:40;;;;;;;4.78;2.95;;;27.00;90.50;;;;;;1861992;76;21139;-68
2022/12/04 02:35:16;;;;;;;5.25;2.72;;;27.00;90.40;;;;;;1848333;75;21183;-67
2022/12/04 02:37:49;;;;;;;6.45;3.25;;;27.10;90.40;;;;;;1859984;76;21174;-68
2022/12/04 02:40:29;;;;;;;5.75;3.60;;;27.10;90.30;;;;;;1886388;76;21217;-68
2022/12/04 02:43:14;;;;;;;5.33;2.80;;;27.20;90.30;;;;;;1886460;75;21162;-69
2022/12/04 02:46:09;;;;;;;4.42;3.33;;;27.20;90.00;;;;;;1875204;76;21197;-69
2022/12/04 02:48:42;;;;;;;5.33;2.87;;;27.30;90.00;;;;;;1867575;76;21155;-70
2022/12/04 02:51:16;;;;;;;8.05;2.90;;;27.30;90.00;;;;;;1877296;76;21134;-68
2022/12/04 02:53:49;;;;;;;8.78;2.95;;;27.40;89.50;;;;;;1880785;76;21532;-68
2022/12/04 02:56:26;;;;;;;5.17;2.42;;;27.40;89.30;;;;;;1883629;75;21139;-67
2022/12/04 02:59:02;;;;;;;6.67;2.35;;;27.50;90.20;;;;;;1863990;76;21126;-69
2022/12/04 03:01:38;;;;;;;7.12;2.80;;;27.60;89.10;;;;;;1886543;76;21619;-67
2022/12/04 03:04:19;;;;;;;4.47;2.55;;;27.60;89.00;;;;;;1893805;75;21072;-69
2022/12/04 03:06:54;;;;;;;5.08;2.30;;;27.70;88.50;;;;;;1879022;75;21095;-70
2022/12/04 03:09:30;;;;;;;5.97;2.60;;;27.80;88.30;;;;;;1842391;77;21174;-69
2022/12/04 03:12:09;;;;;;;4.37;2.70;;;27.90;87.60;;;;;;1839970;77;21204;-69
2022/12/04 03:14:45;;;;;;;3.47;2.50;;;27.90;88.00;;;;;;1732116;82;21687;-67
2022/12/04 03:17:21;;;;;;;4.67;2.50;;;28.00;87.70;;;;;;1867140;75;21181;-68
2022/12/04 03:19:54;;;;;;;8.67;2.77;;;28.00;87.70;;;;;;1874478;76;21124;-68
2022/12/04 03:22:28;;;;;;;4.03;2.52;;;28.10;87.60;;;;;;1878059;75;21138;-68
2022/12/04 03:24:59;;;;;;;4.47;2.30;;;28.10;88.20;;;;;;1873840;76;21135;-67
2022/12/04 03:27:53;;;;;;;4.15;2.30;;;28.10;87.60;;;;;;1883127;75;21707;-68
2022/12/04 03:30:24;;;;;;;3.90;2.00;;;28.20;87.40;;;;;;1882424;75;21174;-68
2022/12/04 03:32:57;;;;;;;4.97;2.15;;;28.30;86.60;;;;;;1890989;75;21107;-69
2022/12/04 03:35:51;;;;;;;3.62;2.12;;;28.30;86.40;;;;;;1882897;75;21123;-68
2022/12/04 03:38:42;;;;;;;3.72;2.08;;;28.40;86.10;;;;;;1869744;75;21116;-68
2022/12/04 03:41:27;;;;;;;3.83;1.98;;;28.50;86.20;;;;;;1867479;76;21198;-69
2022/12/04 03:44:07;;;;;;;10.70;2.65;;;28.60;85.60;;;;;;1856999;77;21681;-68
2022/12/04 03:46:57;;;;;;;4.25;2.45;;;28.70;85.60;;;;;;1861689;76;21572;-66
2022/12/04 03:49:39;;;;;;;4.00;2.17;;;28.80;85.40;;;;;;1852855;77;21560;-68
2022/12/04 03:52:22;;;;;;;8.65;2.60;;;28.90;85.10;;;;;;1847793;77;21186;-67
2022/12/04 03:55:04;;;;;;;9.63;1.95;;;29.00;85.00;;;;;;1852323;76;21627;-68
2022/12/04 03:57:37;;;;;;;8.10;2.37;;;29.10;84.10;;;;;;1853605;76;21115;-66
2022/12/04 04:00:21;;;;;;;14.87;3.15;;;29.20;84.20;;;;;;1849501;76;21537;-67
2022/12/04 04:02:57;;;;;;;5.33;1.40;;;29.30;83.60;;;;;;1856602;76;21483;-67
2022/12/04 04:05:31;;;;;;;2.52;1.42;;;29.30;83.30;;;;;;1852861;77;21128;-66
2022/12/04 04:11:11;;;;;;;6.08;1.00;;;29.40;82.00;;;;;;1846052;77;21632;-68
2022/12/04 04:25:26;;;;;;;1.57;0.98;;;29.40;81.80;;;;;;1868340;76;21657;-67
2022/12/04 04:27:59;;;;;;;3.67;1.15;;;29.40;81.80;;;;;;1850533;76;21140;-68
2022/12/04 04:30:33;;;;;;;3.00;1.30;;;29.30;82.20;;;;;;1858860;77;21089;-68
2022/12/04 04:33:12;;;;;;;2.35;1.70;;;29.30;82.00;;;;;;1861693;77;21144;-68
2022/12/04 04:35:57;;;;;;;2.40;1.27;;;29.30;82.00;;;;;;1852511;76;21123;-68
2022/12/04 04:38:42;;;;;;;5.37;1.60;;;29.40;81.90;;;;;;1852970;77;21140;-68
2022/12/04 04:41:18;;;;;;;3.15;1.40;;;29.50;82.00;;;;;;1840775;77;21213;-67
2022/12/04 04:44:01;;;;;;;3.55;1.60;;;29.70;81.30;;;;;;1863593;76;21605;-67
2022/12/04 04:46:34;;;;;;;3.12;1.47;;;29.90;80.80;;;;;;1854897;77;21159;-69
2022/12/04 04:49:08;;;;;;;3.80;1.50;;;30.10;79.70;;;;;;1852255;77;21163;-67
2022/12/04 04:51:39;;;;;;;8.28;2.10;;;30.10;79.40;;;;;;1859382;76;21041;-69
2022/12/04 04:54:12;;;;;;;3.72;1.40;;;30.20;79.50;;;;;;1846442;77;21160;-69
2022/12/04 04:56:45;;;;;;;2.52;1.32;;;30.20;79.00;;;;;;1861223;77;21172;-68
2022/12/04 04:59:18;;;;;;;2.98;1.52;;;30.20;79.60;;;;;;1860106;76;21097;-70
2022/12/04 05:01:49;;;;;;;2.87;1.52;;;30.20;78.90;;;;;;1853760;77;21229;-68
2022/12/04 05:04:21;;;;;;;2.77;1.95;;;30.30;78.70;;;;;;1856273;77;21177;-69
2022/12/04 05:06:54;;;;;;;3.85;2.12;;;30.40;78.70;;;;;;1843876;77;21142;-67
2022/12/04 05:09:25;;;;;;;3.08;1.40;;;30.50;78.60;;;;;;1824783;78;21109;-71
2022/12/04 05:11:56;;;;;;;3.55;1.50;;;30.60;77.80;;;;;;1847690;77;21152;-68
2022/12/04 05:14:27;;;;;;;3.55;1.77;;;30.80;76.90;;;;;;1853996;77;21188;-70
2022/12/04 05:16:57;;;;;;;3.40;1.98;;;30.90;77.10;;;;;;1852500;77;21128;-69
2022/12/04 05:22:34;;;;;;;3.35;1.80;;;31.10;76.90;;;;;;1796636;80;21166;-70
2022/12/04 05:25:05;;;;;;;4.80;1.60;;;31.10;76.70;;;;;;1825139;78;21166;-69
2022/12/04 05:27:40;;;;;;;2.83;1.45;;;31.20;76.80;;;;;;1857260;77;21525;-68
2022/12/04 05:30:13;;;;;;;2.47;1.42;;;31.20;76.30;;;;;;1843608;76;21116;-68
2022/12/04 05:32:44;;;;;;;4.22;1.70;;;31.20;76.10;;;;;;1864072;76;21175;-68
2022/12/04 05:35:15;;;;;;;2.12;1.42;;;31.30;75.50;;;;;;1857444;77;21221;-69
2022/12/04 05:37:45;;;;;;;4.00;1.12;;;31.40;75.80;;;;;;1854820;77;21087;-68
2022/12/04 05:40:16;;;;;;;2.83;1.30;;;31.40;75.50;;;;;;1808204;78;21239;-70
2022/12/04 05:42:47;;;;;;;3.17;1.47;;;31.40;75.20;;;;;;1840170;77;21147;-68
2022/12/04 05:45:19;;;;;;;2.98;1.52;;;31.30;75.60;;;;;;1872910;76;21212;-68
2022/12/04 05:47:53;;;;;;;3.92;1.40;;;31.20;75.90;;;;;;1871106;76;21131;-68
2022/12/04 05:50:26;;;;;;;2.75;1.40;;;31.10;76.00;;;;;;1880239;74;21622;-69
2022/12/04 05:52:57;;;;;;;4.85;2.05;;;31.10;76.10;;;;;;1874937;76;21122;-69
2022/12/04 05:55:28;;;;;;;2.60;1.75;;;31.10;76.60;;;;;;1836512;77;21071;-69
2022/12/04 05:58:00;;;;;;;3.35;1.42;;;31.20;76.60;;;;;;1826054;78;21205;-69
2022/12/04 06:00:32;;;;;;;3.47;1.50;;;31.20;76.40;;;;;;1839504;77;21194;-70
2022/12/04 06:03:03;;;;;;;2.37;1.27;;;31.30;75.90;;;;;;1826363;77;21678;-68
2022/12/04 06:05:34;;;;;;;3.37;1.45;;;31.20;75.70;;;;;;1842402;77;21180;-68
2022/12/04 06:08:05;;;;;;;2.55;1.10;;;31.10;76.30;;;;;;1828505;78;21257;-67
2022/12/04 06:10:36;;;;;;;3.67;1.90;;;31.00;76.40;;;;;;1847826;77;21173;-68
2022/12/04 06:13:08;;;;;;;1.85;1.10;;;30.80;76.60;;;;;;1843061;77;21083;-69
2022/12/04 06:15:39;;;;;;;2.67;1.35;;;30.70;76.70;;;;;;1845528;77;21180;-69
2022/12/04 06:18:11;;;;;;;1.92;1.30;;;30.60;77.10;;;;;;1836204;77;21181;-67
2022/12/04 06:20:43;;;;;;;2.35;1.35;;;30.60;76.70;;;;;;1846357;77;21145;-68
2022/12/04 06:23:14;;;;;;;2.40;1.00;;;30.70;77.20;;;;;;1835897;77;21157;-68
2022/12/04 06:28:37;;;;;;;2.67;1.22;;;30.70;76.60;;;;;;1922141;74;21202;-69
2022/12/04 06:31:12;;;;;;;2.25;1.10;;;30.70;76.90;;;;;;1882787;75;21075;-69
2022/12/04 06:33:43;;;;;;;2.65;1.02;;;30.70;76.70;;;;;;1899384;73;21158;-69
2022/12/04 06:36:16;;;;;;;2.12;1.02;;;30.70;76.50;;;;;;1903176;74;21195;-67
2022/12/04 06:38:48;;;;;;;2.60;0.85;;;30.80;76.20;;;;;;1910332;73;21209;-69
2022/12/04 06:41:20;;;;;;;1.87;0.82;;;30.80;76.20;;;;;;1890366;75;21572;-68
2022/12/04 06:43:51;;;;;;;2.17;0.90;;;30.80;76.40;;;;;;1895481;75;21139;-67
2022/12/04 06:46:26;;;;;;;2.17;0.95;;;30.80;75.60;;;;;;1910869;74;21092;-68
2022/12/04 06:48:58;;;;;;;2.15;0.93;;;31.00;75.60;;;;;;1938368;73;21124;-68
2022/12/04 06:51:32;;;;;;;2.22;1.10;;;31.00;75.40;;;;;;1914293;74;21209;-67
2022/12/04 06:54:03;;;;;;;2.30;1.00;;;31.10;74.40;;;;;;1920094;73;21092;-68
2022/12/04 06:56:34;;;;;;;1.57;0.95;;;31.30;73.20;;;;;;1911565;74;21135;-69
2022/12/04 06:59:06;;;;;;;2.77;0.90;;;31.40;73.70;;;;;;1888270;75;21151;-69
2022/12/04 07:01:38;;;;;;;2.05;0.90;;;31.40;72.50;;;;;;1919178;74;21157;-69
2022/12/04 07:04:11;;;;;;;2.83;1.05;;;31.50;72.80;;;;;;1883578;75;21595;-69
2022/12/04 07:06:42;;;;;;;1.92;0.90;;;31.50;72.20;;;;;;1923411;73;21096;-68
2022/12/04 07:09:15;;;;;;;5.15;1.10;;;31.40;72.60;;;;;;1927805;73;21184;-69
2022/12/04 07:11:47;;;;;;;2.67;0.85;;;31.40;73.00;;;;;;1925593;73;21177;-69
2022/12/04 07:14:18;;;;;;;1.52;0.88;;;31.40;72.90;;;;;;1939809;73;21069;-69
2022/12/04 07:16:50;;;;;;;2.87;1.22;;;31.40;72.60;;;;;;1932155;73;21194;-68
2022/12/04 07:19:24;;;;;;;2.52;1.10;;;31.40;72.30;;;;;;1928677;74;21147;-68
2022/12/04 07:21:55;;;;;;;2.60;1.02;;;31.30;72.60;;;;;;1924223;73;21154;-69
2022/12/04 07:24:26;;;;;;;2.17;1.12;;;31.30;73.00;;;;;;1939545;73;21143;-69
2022/12/04 07:26:58;;;;;;;1.32;0.72;;;31.20;73.50;;;;;;1921295;73;21158;-69
2022/12/04 07:29:29;;;;;;;3.50;1.02;;;31.20;73.40;;;;;;1927558;73;21104;-70
2022/12/04 07:32:00;;;;;;;1.90;1.10;;;31.20;73.70;;;;;;1969557;71;21177;-69
2022/12/04 07:34:31;;;;;;;1.75;1.00;;;31.30;73.40;;;;;;1967693;71;21103;-69
2022/12/04 07:37:02;;;;;;;1.87;1.05;;;31.40;73.40;;;;;;1979084;71;21119;-68
2022/12/04 07:39:34;;;;;;;4.53;1.07;;;31.40;72.80;;;;;;1968392;71;21059;-68
2022/12/04 07:42:06;;;;;;;2.87;1.30;;;31.50;72.90;;;;;;1967748;71;21582;-69
2022/12/04 07:44:57;;;;;;;2.67;0.93;;;31.50;72.70;;;;;;1990681;71;21068;-68
2022/12/04 07:47:30;;;;;;;1.95;0.98;;;31.50;72.80;;;;;;1880921;75;22406;-68
2022/12/04 07:50:00;;;;;;;2.12;1.10;;;31.40;73.50;;;;;;1897892;75;21188;-69
2022/12/04 07:52:33;;;;;;;2.83;1.07;;;31.40;73.30;;;;;;1869823;75;21150;-69
2022/12/04 07:55:04;;;;;;;2.67;0.88;;;31.30;73.60;;;;;;1870274;75;21118;-69
2022/12/04 07:57:36;;;;;;;2.42;0.98;;;31.30;73.00;;;;;;1882008;75;21519;-69
2022/12/04 08:00:08;;;;;;;2.17;1.07;;;31.40;72.80;;;;;;1883253;75;21654;-69
2022/12/04 08:02:46;;;;;;;3.42;0.80;;;31.40;73.20;;;;;;1887970;75;21075;-69
2022/12/04 08:05:17;;;;;;;2.52;0.80;;;31.30;72.70;;;;;;1881437;75;21154;-69
2022/12/04 08:07:49;;;;;;;1.95;0.82;;;31.30;73.00;;;;;;1879535;75;21128;-68
2022/12/04 08:10:21;;;;;;;2.83;1.00;;;31.30;73.10;;;;;;1807064;78;21149;-69
2022/12/04 08:12:52;;;;;;;3.25;1.72;;;31.20;73.60;;;;;;1890532;75;21220;-69
2022/12/04 08:15:23;;;;;;;2.20;1.30;;;31.20;74.00;;;;;;1883417;75;21181;-68
2022/12/04 08:17:57;;;;;;;2.47;1.30;;;31.20;74.00;;;;;;1871867;75;21547;-69
2022/12/04 08:20:28;;;;;;;2.00;1.00;;;31.10;73.30;;;;;;1877829;75;21079;-70
2022/12/04 08:22:59;;;;;;;2.25;1.00;;;31.10;73.30;;;;;;1879944;75;21177;-69
2022/12/04 08:25:30;;;;;;;3.50;0.98;;;31.10;73.70;;;;;;1891623;75;21134;-71
2022/12/04 08:28:12;;;;;;;3.72;1.80;;;31.00;74.10;;;;;;1881776;75;21118;-71
2022/12/04 08:30:43;;;;;;;1.98;0.90;;;31.00;74.50;;;;;;1881125;75;21127;-71
2022/12/04 08:33:15;;;;;;;3.55;1.15;;;30.90;74.20;;;;;;1897525;75;21182;-70
2022/12/04 08:35:50;;;;;;;;;;;30.90;74.80;;;;;;1888044;75;21649;-71
2022/12/04 08:38:21;;;;;;;2.35;0.82;;;30.80;75.30;;;;;;1885216;75;20448;-68
2022/12/04 08:40:56;;;;;;;4.62;1.10;;;30.80;74.50;;;;;;1884493;75;21091;-71
2022/12/04 08:43:27;;;;;;;2.40;1.10;;;30.80;74.70;;;;;;1879927;75;21119;-70
2022/12/04 08:46:03;;;;;;;4.08;1.25;;;30.70;74.70;;;;;;1881945;75;21170;-71
2022/12/04 08:48:35;;;;;;;4.10;1.27;;;30.70;74.40;;;;;;1871364;75;21146;-70
2022/12/04 08:51:09;;;;;;;2.12;0.90;;;30.80;74.10;;;;;;1876154;74;21204;-70
2022/12/04 08:53:41;;;;;;;3.20;1.20;;;30.90;74.10;;;;;;1895570;75;21176;-71
2022/12/04 08:56:13;;;;;;;3.10;0.85;;;30.90;73.80;;;;;;1874672;75;21190;-70
2022/12/04 08:58:45;;;;;;;1.42;0.65;;;31.00;73.80;;;;;;1889252;76;21150;-72
2022/12/04 09:01:19;;;;;;;3.42;0.90;;;31.00;73.60;;;;;;1888771;76;21646;-71
2022/12/04 09:03:50;;;;;;;2.83;0.90;;;30.90;73.90;;;;;;1882221;75;21228;-70
2022/12/04 09:06:22;;;;;;;3.22;1.00;;;30.90;74.10;;;;;;1874785;75;21131;-72
2022/12/04 09:08:56;;;;;;;3.65;0.80;;;30.90;74.20;;;;;;1864454;75;21126;-72
2022/12/04 09:11:29;;;;;;;1.35;0.70;;;30.90;74.30;;;;;;1872479;74;21126;-71
2022/12/04 09:14:03;;;;;;;3.87;0.90;;;31.00;74.20;;;;;;1890528;74;21091;-68
2022/12/04 09:16:34;;;;;;;4.05;0.90;;;31.00;74.00;;;;;;1884557;74;21328;-70
2022/12/04 09:19:05;;;;;;;1.25;0.70;;;31.00;74.10;;;;;;1889550;75;21142;-69
2022/12/04 09:21:37;;;;;;;4.05;0.90;;;31.00;74.10;;;;;;1877006;74;21177;-69
2022/12/04 09:24:08;;;;;;;3.22;0.88;;;31.00;74.20;;;;;;1856982;76;21692;-69
2022/12/04 09:26:40;;;;;;;3.37;1.22;;;31.00;74.10;;;;;;1866355;75;21681;-69
2022/12/04 09:29:13;;;;;;;2.52;1.00;;;31.00;74.30;;;;;;1879069;75;21999;-69
2022/12/04 09:31:44;;;;;;;2.98;1.15;;;30.90;74.20;;;;;;1880569;75;21628;-69
2022/12/04 09:34:16;;;;;;;2.77;0.80;;;30.80;74.40;;;;;;1871792;75;21606;-69
2022/12/04 09:36:47;;;;;;;3.50;0.95;;;30.80;74.60;;;;;;1875032;74;21475;-67
2022/12/04 09:39:39;;;;;;;3.98;1.30;;;30.80;74.80;;;;;;1876162;75;21133;-70
2022/12/04 09:42:21;;;;;;;2.40;1.37;;;30.70;74.70;;;;;;1879200;75;21162;-70
2022/12/04 09:44:55;;;;;;;2.62;1.40;;;30.70;74.70;;;;;;1886514;75;21216;-69
2022/12/04 09:47:36;;;;;;;3.45;1.40;;;30.70;75.00;;;;;;1897709;75;21107;-70
2022/12/04 09:50:15;;;;;;;3.35;1.87;;;30.60;75.30;;;;;;1874101;75;21132;-69
2022/12/04 09:53:06;;;;;;;4.05;2.25;;;30.60;75.30;;;;;;1891674;75;21099;-70
2022/12/04 09:56:00;;;;;;;4.00;1.95;;;30.60;75.50;;;;;;1846169;76;21816;-70
2022/12/04 09:58:48;;;;;;;3.33;1.80;;;30.60;75.10;;;;;;1851855;76;21174;-69
2022/12/04 10:01:25;;;;;;;6.78;3.58;;;30.50;75.40;;;;;;1890906;75;21268;-68
2022/12/04 10:03:59;;;;;;;6.72;4.10;;;30.50;75.40;;;;;;1885157;75;21231;-68
2022/12/04 10:06:34;;;;;;;4.37;2.83;;;30.50;75.70;;;;;;1875531;75;21138;-67
2022/12/04 10:09:16;;;;;;;6.37;2.50;;;30.50;75.70;;;;;;1842378;78;21147;-67
2022/12/04 10:12:24;;;;;;;4.85;2.50;;;30.40;75.90;;;;;;1873296;75;21141;-66
2022/12/04 10:15:22;;;;;;;4.33;2.62;;;30.40;75.90;;;;;;1874962;76;21591;-67
2022/12/04 10:18:10;;;;;;;3.83;2.00;;;30.30;76.20;;;;;;1875705;76;21158;-68
2022/12/04 10:20:59;;;;;;;2.95;1.75;;;30.30;76.50;;;;;;1878111;75;21240;-66
2022/12/04 10:23:44;;;;;;;4.10;1.65;;;30.20;76.80;;;;;;1855164;76;21123;-67
2022/12/04 10:26:19;;;;;;;4.10;1.65;;;30.20;76.90;;;;;;1881069;75;21241;-66
2022/12/04 10:28:59;;;;;;;3.30;1.85;;;30.20;77.20;;;;;;1881505;75;21547;-68
2022/12/04 10:31:36;;;;;;;5.33;1.75;;;30.10;77.30;;;;;;1862462;76;21682;-68
2022/12/04 10:34:09;;;;;;;2.22;1.45;;;30.10;77.60;;;;;;1876078;75;21202;-68
2022/12/04 10:36:41;;;;;;;3.25;1.80;;;30.10;77.70;;;;;;1870647;75;21194;-67
2022/12/04 10:39:20;;;;;;;4.08;2.10;;;30.00;77.80;;;;;;1875049;75;21248;-66
2022/12/04 10:42:00;;;;;;;3.70;1.80;;;30.00;77.90;;;;;;1875721;75;21231;-69
2022/12/04 10:44:31;;;;;;;3.00;1.80;;;30.00;78.10;;;;;;1871105;76;21172;-66
2022/12/04 10:47:04;;;;;;;3.65;1.70;;;29.90;78.10;;;;;;1871432;76;21147;-69
2022/12/04 10:49:36;;;;;;;7.80;2.67;;;29.90;78.40;;;;;;1879585;75;21120;-67
2022/12/04 10:52:09;;;;;;;4.37;2.20;;;29.90;78.50;;;;;;1887471;76;21084;-67
2022/12/04 10:54:48;;;;;;;4.08;2.20;;;29.90;78.70;;;;;;1885492;76;21138;-68
2022/12/04 10:57:19;;;;;;;7.45;2.77;;;29.80;78.70;;;;;;1875659;76;21150;-68
2022/12/04 10:59:52;;;;;;;6.17;2.85;;;29.80;78.90;;;;;;1887476;76;21131;-68
2022/12/04 11:02:29;;;;;;;5.15;3.02;;;29.80;79.30;;;;;;1883719;75;21557;-65
2022/12/04 11:05:09;;;;;;;7.70;3.55;;;29.80;79.40;;;;;;1858847;76;21115;-67
2022/12/04 11:07:49;;;;;;;6.55;3.80;;;29.70;79.50;;;;;;1884550;76;21622;-67
2022/12/04 11:10:22;;;;;;;8.38;3.35;;;29.70;79.60;;;;;;1869615;76;21190;-68
2022/12/04 11:12:58;;;;;;;5.95;3.47;;;29.70;79.80;;;;;;1872539;76;21084;-68
2022/12/04 11:15:29;;;;;;;7.17;3.13;;;29.60;80.70;;;;;;1876135;76;21064;-66
2022/12/04 11:18:11;;;;;;;6.47;3.10;;;29.60;80.00;;;;;;1868436;76;21068;-68
2022/12/04 11:20:44;;;;;;;8.03;2.90;;;29.60;80.10;;;;;;1872763;76;21678;-67
2022/12/04 11:23:17;;;;;;;5.67;3.02;;;29.60;81.10;;;;;;1873530;76;21201;-68
2022/12/04 11:25:53;;;;;;;12.30;3.58;;;29.60;80.20;;;;;;1876213;76;21655;-68
2022/12/04 11:28:33;;;;;;;4.90;3.00;;;29.60;80.30;;;;;;1870609;76;21233;-68
2022/12/04 11:31:07;;;;;;;6.67;4.00;;;29.60;80.40;;;;;;1869636;74;21169;-70
2022/12/04 11:33:41;;;;;;;6.17;3.77;;;29.50;80.40;;;;;;1864085;76;21147;-68
2022/12/04 11:36:26;;;;;;;9.03;4.15;;;29.50;80.40;;;;;;1864890;75;21126;-68
2022/12/04 11:39:14;;;;;;;12.57;7.20;;;29.50;80.50;;;;;;1875411;75;21552;-79
2022/12/04 11:41:49;;;;;;;12.88;8.20;;;29.50;80.70;;;;;;1869701;76;21557;-82
2022/12/04 11:44:28;;;;;;;11.53;4.50;;;29.50;80.80;;;;;;1832116;76;21170;-79
2022/12/04 11:47:02;;;;;;;10.40;4.65;;;29.50;80.90;;;;;;1866306;76;21579;-80
2022/12/04 11:49:35;;;;;;;7.97;4.47;;;29.50;80.80;;;;;;1812685;79;21159;-80
2022/12/04 11:52:16;;;;;;;6.72;4.28;;;29.50;80.80;;;;;;1839807;76;21217;-80
2022/12/04 11:54:58;;;;;;;7.05;4.45;;;29.50;80.90;;;;;;1815170;79;21186;-79
2022/12/04 11:57:53;;;;;;;8.60;4.30;;;29.40;80.80;;;;;;1814317;79;21187;-81
2022/12/04 12:00:27;;;;;;;8.93;4.62;;;29.50;81.00;;;;;;1841162;78;21198;-80
2022/12/04 12:03:04;;;;;;;10.05;4.80;;;29.40;81.00;;;;;;1841345;76;21176;-80
2022/12/04 12:05:37;;;;;;;6.30;3.75;;;29.40;81.20;;;;;;1850565;76;21126;-80
2022/12/04 12:08:34;;;;;;;9.45;4.55;;;29.40;81.20;;;;;;1850752;76;21683;-79
2022/12/04 12:11:12;;;;;;;7.22;4.05;;;29.40;81.30;;;;;;1844063;76;21221;-78
2022/12/04 12:13:53;;;;;;;8.28;4.28;;;29.40;81.40;;;;;;1847905;76;21142;-77
2022/12/04 12:16:47;;;;;;;11.10;5.33;;;29.40;81.60;;;;;;1851924;76;21541;-81
2022/12/04 12:19:34;;;;;;;12.07;5.10;;;29.40;81.60;;;;;;1815412;79;21128;-78
2022/12/04 12:22:25;;;;;;;11.03;5.00;;;29.30;81.60;;;;;;1862968;76;21214;-80
2022/12/04 12:25:02;;;;;;;9.58;5.33;;;29.30;81.90;;;;;;1865222;76;21296;-78
2022/12/04 12:27:47;;;;;;;9.05;5.25;;;29.30;81.80;;;;;;1843879;76;21088;-80
2022/12/04 12:30:22;;;;;;;7.92;4.90;;;29.30;81.90;;;;;;1811898;77;21487;-79
2022/12/04 12:33:01;;;;;;;10.50;5.20;;;29.30;82.10;;;;;;1872489;76;21504;-79
2022/12/04 12:35:38;;;;;;;11.12;5.47;;;29.20;81.90;;;;;;1855836;76;22020;-80
2022/12/04 12:38:27;;;;;;;10.13;5.28;;;29.20;82.00;;;;;;1815096;79;21160;-80
2022/12/04 12:41:03;;;;;;;9.48;6.25;;;29.20;82.30;;;;;;1870889;76;21143;-80
2022/12/04 12:43:39;;;;;;;17.62;6.25;;;29.20;82.40;;;;;;1814167;78;21661;-79
2022/12/04 12:46:38;;;;;;;11.03;6.42;;;29.20;82.70;;;;;;1810423;78;21161;-80
2022/12/04 12:49:20;;;;;;;10.78;6.05;;;29.10;82.70;;;;;;1808929;78;21115;-80
2022/12/04 12:52:22;;;;;;;12.90;7.03;;;29.10;82.90;;;;;;1814528;77;21187;-79
2022/12/04 12:54:59;;;;;;;10.95;6.20;;;29.10;83.00;;;;;;1806043;78;21677;-80
2022/12/04 12:57:36;;;;;;;13.22;6.90;;;29.00;82.90;;;;;;1814235;79;21107;-81
2022/12/04 13:00:18;;;;;;;14.93;7.30;;;29.00;83.00;;;;;;1857467;77;21175;-78
2022/12/04 13:03:03;;;;;;;12.98;6.85;;;29.00;83.20;;;;;;1815459;79;21679;-78
2022/12/04 13:05:40;;;;;;;12.35;7.00;;;29.00;83.40;;;;;;1838522;78;21775;-79
2022/12/04 13:08:40;;;;;;;14.93;7.72;;;28.90;83.40;;;;;;1845876;76;21176;-85
2022/12/04 13:11:15;;;;;;;12.18;7.60;;;28.90;83.50;;;;;;1853533;77;21200;-83
2022/12/04 13:13:59;;;;;;;15.60;8.53;;;28.90;83.70;;;;;;1819721;78;21127;-85
2022/12/04 13:16:43;;;;;;;14.75;8.50;;;28.90;83.70;;;;;;1854912;77;21084;-85
2022/12/04 13:19:22;;;;;;;13.93;7.75;;;28.90;84.00;;;;;;1841689;78;21140;-84
2022/12/04 13:22:26;;;;;;;15.05;7.55;;;28.90;84.00;;;;;;1844006;77;21044;-84
2022/12/04 13:25:18;;;;;;;14.65;9.53;;;28.80;84.10;;;;;;1833860;77;21125;-85
2022/12/04 13:28:09;;;;;;;15.55;9.03;;;28.80;84.40;;;;;;1833327;78;21068;-84
2022/12/04 13:31:02;;;;;;;18.12;8.73;;;28.80;84.60;;;;;;1839516;77;21062;-85
2022/12/04 13:33:40;;;;;;;16.93;8.03;;;28.80;84.90;;;;;;1828978;77;21159;-84
2022/12/04 13:36:22;;;;;;;18.27;8.78;;;28.80;85.00;;;;;;1832886;77;21262;-84
2022/12/04 13:39:24;;;;;;;14.73;8.60;;;28.70;85.10;;;;;;1843065;77;21199;-84
2022/12/04 13:42:00;;;;;;;16.73;9.25;;;28.70;85.30;;;;;;1832592;75;21511;-83
2022/12/04 13:44:34;;;;;;;15.10;8.98;;;28.70;85.50;;;;;;1879150;75;21604;-84
2022/12/04 13:47:09;;;;;;;15.05;8.80;;;28.60;85.60;;;;;;1849814;76;21143;-85
2022/12/04 13:49:54;;;;;;;15.78;8.93;;;28.60;85.80;;;;;;1861016;76;21819;-86
2022/12/04 13:52:28;;;;;;;13.55;8.90;;;28.60;86.90;;;;;;1854120;76;21167;-85